createdAt,value
2023-05-21T00:00:03.717Z,9.33
2023-05-21T00:01:03.584Z,9.41
2023-05-21T00:02:03.867Z,9.43
2023-05-21T00:03:03.313Z,9.36
2023-05-21T00:04:03.322Z,9.25
2023-05-21T00:05:03.563Z,8.97
2023-05-21T00:06:03.938Z,8.91
2023-05-21T00:07:03.644Z,9.22
2023-05-21T00:08:03.766Z,9.16
2023-05-21T00:09:04.090Z,9.17
2023-05-21T00:10:03.495Z,9.19
2023-05-21T00:11:03.324Z,9.2
2023-05-21T00:12:06.504Z,9.32
2023-05-21T00:13:04.245Z,9.18
2023-05-21T00:14:04.234Z,9.29
2023-05-21T00:15:04.562Z,9.33
2023-05-21T00:16:04.485Z,9.04
2023-05-21T00:17:04.548Z,9.19
2023-05-21T00:18:04.872Z,9.38
2023-05-21T00:19:04.187Z,9.55
2023-05-21T00:20:04.958Z,9.54
2023-05-21T00:21:04.156Z,9.52
2023-05-21T00:22:04.397Z,9.5
2023-05-21T00:23:04.245Z,9.54
2023-05-21T00:24:04.584Z,9.68
2023-05-21T00:25:04.704Z,9.53
2023-05-21T00:26:04.270Z,9.44
2023-05-21T00:27:04.610Z,9.31
2023-05-21T00:28:04.666Z,9.26
2023-05-21T00:29:04.712Z,9.33
2023-05-21T00:30:04.949Z,9.33
2023-05-21T00:31:04.453Z,9.36
2023-05-21T00:32:04.958Z,9.31
2023-05-21T00:33:04.342Z,9.38
2023-05-21T00:34:04.334Z,9.25
2023-05-21T00:35:04.783Z,9.03
2023-05-21T00:36:04.986Z,9.1
2023-05-21T00:37:04.971Z,9.17
2023-05-21T00:38:04.450Z,8.98
2023-05-21T00:39:05.240Z,9.14
2023-05-21T00:40:05.384Z,9.04
2023-05-21T00:41:04.690Z,9.17
2023-05-21T00:42:05.004Z,9.16
2023-05-21T00:43:04.458Z,9.12
2023-05-21T00:44:05.135Z,9.2
2023-05-21T00:45:05.675Z,9.18
2023-05-21T00:46:04.644Z,8.97
2023-05-21T00:47:05.353Z,8.97
2023-05-21T00:48:05.629Z,8.83
2023-05-21T00:49:04.742Z,8.72
2023-05-21T00:50:05.745Z,8.66
2023-05-21T00:51:04.782Z,8.77
2023-05-21T00:52:05.373Z,8.83
2023-05-21T00:53:04.919Z,8.89
2023-05-21T00:54:04.705Z,9.13
2023-05-21T00:55:05.304Z,9.06
2023-05-21T00:56:05.358Z,9.08
2023-05-21T00:57:05.240Z,9.03
2023-05-21T00:58:05.128Z,9.16
2023-05-21T00:59:04.942Z,9.11
2023-05-21T01:00:05.473Z,9.11
2023-05-21T01:01:04.939Z,9.11
2023-05-21T01:02:05.502Z,9.14
2023-05-21T01:03:05.641Z,9.05
2023-05-21T01:04:05.051Z,8.93
2023-05-21T01:05:05.292Z,9
2023-05-21T01:06:05.797Z,8.99
2023-05-21T01:07:04.904Z,8.91
2023-05-21T01:08:05.413Z,8.97
2023-05-21T01:09:05.443Z,8.79
2023-05-21T01:10:06.245Z,8.9
2023-05-21T01:11:06.339Z,8.97
2023-05-21T01:12:05.724Z,8.98
2023-05-21T01:13:05.229Z,8.95
2023-05-21T01:14:05.640Z,8.89
2023-05-21T01:15:05.759Z,8.99
2023-05-21T01:16:05.875Z,8.96
2023-05-21T01:17:05.905Z,8.96
2023-05-21T01:18:05.495Z,9.05
2023-05-21T01:19:05.628Z,8.94
2023-05-21T01:20:08.005Z,8.96
2023-05-21T01:21:06.429Z,8.9
2023-05-21T01:22:07.273Z,8.78
2023-05-21T01:23:06.423Z,8.84
2023-05-21T01:24:06.335Z,8.9
2023-05-21T01:25:06.668Z,8.83
2023-05-21T01:26:06.088Z,8.84
2023-05-21T01:27:06.230Z,8.84
2023-05-21T01:28:06.154Z,8.88
2023-05-21T01:29:06.174Z,8.86
2023-05-21T01:30:06.853Z,8.88
2023-05-21T01:31:15.991Z,8.91
2023-05-21T01:32:21.416Z,8.85
2023-05-21T01:34:13.528Z,8.81
2023-05-21T01:35:20.524Z,8.83
2023-05-21T01:36:28.935Z,8.81
2023-05-21T01:37:22.899Z,8.79
2023-05-21T01:38:26.106Z,8.82
2023-05-21T01:39:25.958Z,8.85
2023-05-21T01:41:23.968Z,8.73
2023-05-21T01:42:23.532Z,8.71
2023-05-21T01:43:23.371Z,8.66
2023-05-21T01:44:24.009Z,8.75
2023-05-21T01:45:23.671Z,8.74
2023-05-21T01:46:27.202Z,8.71
2023-05-21T01:47:24.570Z,8.67
2023-05-21T01:48:25.599Z,8.78
2023-05-21T01:49:24.713Z,8.75
2023-05-21T01:50:24.492Z,8.7
2023-05-21T01:51:25.038Z,8.73
2023-05-21T01:52:24.255Z,8.8
2023-05-21T01:53:24.437Z,8.79
2023-05-21T01:54:24.070Z,8.78
2023-05-21T01:55:24.668Z,8.7
2023-05-21T01:56:24.105Z,8.79
2023-05-21T01:57:24.131Z,8.76
2023-05-21T01:58:24.089Z,8.7
2023-05-21T01:59:24.191Z,8.75
2023-05-21T02:00:25.009Z,8.71
2023-05-21T02:01:24.190Z,8.7
2023-05-21T02:02:24.173Z,8.83
2023-05-21T02:03:25.707Z,8.79
2023-05-21T02:04:24.229Z,8.77
2023-05-21T02:05:24.406Z,8.79
2023-05-21T02:06:24.294Z,8.77
2023-05-21T02:07:24.274Z,8.74
2023-05-21T02:08:24.218Z,8.64
2023-05-21T02:09:24.259Z,8.76
2023-05-21T02:10:24.329Z,8.78
2023-05-21T02:11:24.331Z,8.82
2023-05-21T02:12:24.308Z,8.8
2023-05-21T02:13:26.209Z,8.77
2023-05-21T02:14:24.419Z,8.71
2023-05-21T02:15:24.600Z,8.82
2023-05-21T02:16:25.244Z,8.78
2023-05-21T02:17:24.641Z,8.81
2023-05-21T02:18:24.671Z,8.82
2023-05-21T02:19:24.679Z,8.85
2023-05-21T02:20:24.717Z,8.82
2023-05-21T02:21:24.630Z,8.84
2023-05-21T02:22:24.566Z,8.85
2023-05-21T02:23:24.670Z,8.87
2023-05-21T02:24:24.575Z,8.94
2023-05-21T02:25:24.737Z,8.87
2023-05-21T02:26:24.567Z,9
2023-05-21T02:27:24.603Z,8.93
2023-05-21T02:28:24.771Z,8.94
2023-05-21T02:29:24.783Z,8.9
2023-05-21T02:30:24.677Z,8.83
2023-05-21T02:31:24.686Z,8.95
2023-05-21T02:32:24.658Z,8.89
2023-05-21T02:33:24.678Z,8.86
2023-05-21T02:34:24.889Z,8.95
2023-05-21T02:35:24.755Z,8.98
2023-05-21T02:36:24.783Z,8.92
2023-05-21T02:37:25.239Z,8.86
2023-05-21T02:38:24.743Z,8.82
2023-05-21T02:39:24.778Z,8.86
2023-05-21T02:40:24.969Z,8.84
2023-05-21T02:41:24.810Z,8.81
2023-05-21T02:42:24.833Z,8.92
2023-05-21T02:43:24.834Z,9.01
2023-05-21T02:44:24.931Z,8.97
2023-05-21T02:45:24.885Z,8.91
2023-05-21T02:46:24.982Z,8.92
2023-05-21T02:47:24.936Z,9.01
2023-05-21T02:48:25.108Z,8.92
2023-05-21T02:49:25.098Z,8.96
2023-05-21T02:50:24.979Z,9.08
2023-05-21T02:51:25.015Z,9.08
2023-05-21T02:52:24.986Z,9.14
2023-05-21T02:53:25.341Z,9.1
2023-05-21T02:54:25.011Z,9.17
2023-05-21T02:55:25.454Z,9.24
2023-05-21T02:56:25.139Z,9.18
2023-05-21T02:57:25.137Z,9.13
2023-05-21T02:58:25.073Z,9.22
2023-05-21T02:59:25.155Z,9.19
2023-05-21T03:00:25.092Z,9.17
2023-05-21T03:01:25.110Z,9.14
2023-05-21T03:02:25.285Z,9.06
2023-05-21T03:03:25.275Z,9.13
2023-05-21T03:04:25.178Z,9.25
2023-05-21T03:05:25.158Z,9.29
2023-05-21T03:06:25.207Z,9.33
2023-05-21T03:07:25.188Z,9.3
2023-05-21T03:08:25.256Z,9.36
2023-05-21T03:09:25.408Z,9.37
2023-05-21T03:10:25.301Z,9.39
2023-05-21T03:11:25.289Z,9.43
2023-05-21T03:12:25.318Z,9.42
2023-05-21T03:13:25.341Z,9.4
2023-05-21T03:14:25.356Z,9.5
2023-05-21T03:15:25.926Z,9.63
2023-05-21T03:16:25.422Z,9.65
2023-05-21T03:17:25.502Z,9.7
2023-05-21T03:18:25.419Z,9.7
2023-05-21T03:19:25.507Z,9.82
2023-05-21T03:20:25.656Z,9.82
2023-05-21T03:21:25.618Z,9.9
2023-05-21T03:22:25.489Z,9.93
2023-05-21T03:23:25.858Z,9.98
2023-05-21T03:24:25.506Z,10.03
2023-05-21T03:25:25.577Z,10.04
2023-05-21T03:26:26.295Z,10.02
2023-05-21T03:27:25.550Z,10.09
2023-05-21T03:28:25.591Z,10.05
2023-05-21T03:29:25.571Z,10.11
2023-05-21T03:30:25.615Z,10.12
2023-05-21T03:31:26.461Z,10.14
2023-05-21T03:32:25.714Z,10.14
2023-05-21T03:33:25.654Z,10.14
2023-05-21T03:34:25.668Z,10.14
2023-05-21T03:35:25.740Z,10.13
2023-05-21T03:36:25.699Z,10.14
2023-05-21T03:37:25.677Z,10.14
2023-05-21T03:38:25.749Z,10.18
2023-05-21T03:39:25.757Z,10.12
2023-05-21T03:40:25.802Z,10.14
2023-05-21T03:41:25.986Z,10.16
2023-05-21T03:42:25.849Z,10.15
2023-05-21T03:43:25.797Z,10.15
2023-05-21T03:44:25.859Z,10.12
2023-05-21T03:45:25.878Z,10.09
2023-05-21T03:46:26.080Z,10.11
2023-05-21T03:47:25.929Z,10.13
2023-05-21T03:48:25.925Z,10.14
2023-05-21T03:49:25.973Z,10.14
2023-05-21T03:50:26.113Z,10.18
2023-05-21T03:51:25.980Z,10.11
2023-05-21T03:52:25.990Z,10.12
2023-05-21T03:53:26.824Z,10.21
2023-05-21T03:54:26.033Z,10.19
2023-05-21T03:55:26.058Z,10.14
2023-05-21T03:56:26.068Z,10.19
2023-05-21T03:57:26.062Z,10.16
2023-05-21T03:58:26.117Z,10.22
2023-05-21T03:59:26.121Z,10.17
2023-05-21T04:00:26.278Z,10.09
2023-05-21T04:01:26.127Z,10.14
2023-05-21T04:02:26.980Z,10.15
2023-05-21T04:03:26.316Z,10.12
2023-05-21T04:04:26.216Z,10.15
2023-05-21T04:05:26.211Z,10.16
2023-05-21T04:06:26.184Z,10.2
2023-05-21T04:07:26.220Z,10.26
2023-05-21T04:08:26.431Z,10.19
2023-05-21T04:09:26.226Z,10.26
2023-05-21T04:10:27.061Z,10.16
2023-05-21T04:11:26.844Z,10.21
2023-05-21T04:12:26.771Z,10.16
2023-05-21T04:13:26.788Z,10.23
2023-05-21T04:14:26.829Z,10.33
2023-05-21T04:15:26.856Z,10.32
2023-05-21T04:16:26.944Z,10.37
2023-05-21T04:17:27.142Z,10.36
2023-05-21T04:18:26.979Z,10.35
2023-05-21T04:19:27.052Z,10.4
2023-05-21T04:20:27.263Z,10.45
2023-05-21T04:21:27.002Z,10.47
2023-05-21T04:22:27.197Z,10.71
2023-05-21T04:23:27.413Z,10.72
2023-05-21T04:24:26.998Z,10.63
2023-05-21T04:25:27.055Z,10.64
2023-05-21T04:26:26.980Z,10.65
2023-05-21T04:27:27.108Z,10.68
2023-05-21T04:28:27.108Z,10.72
2023-05-21T04:29:27.481Z,10.64
2023-05-21T04:30:27.110Z,10.62
2023-05-21T04:31:27.173Z,10.7
2023-05-21T04:32:27.192Z,10.79
2023-05-21T04:33:27.187Z,10.76
2023-05-21T04:34:27.176Z,10.75
2023-05-21T04:35:27.245Z,10.79
2023-05-21T04:36:27.198Z,10.9
2023-05-21T04:37:27.612Z,10.96
2023-05-21T04:38:27.267Z,10.91
2023-05-21T04:39:27.600Z,10.84
2023-05-21T04:40:27.235Z,10.9
2023-05-21T04:41:27.269Z,11
2023-05-21T04:42:27.519Z,11.08
2023-05-21T04:43:27.262Z,11.16
2023-05-21T04:44:27.794Z,11.22
2023-05-21T04:45:27.799Z,11.23
2023-05-21T04:46:27.831Z,11.4
2023-05-21T04:47:27.901Z,11.15
2023-05-21T04:48:27.818Z,11.3
2023-05-21T04:49:27.858Z,11.5
2023-05-21T04:50:28.069Z,11.58
2023-05-21T04:51:28.192Z,11.59
2023-05-21T04:52:27.928Z,11.56
2023-05-21T04:53:27.965Z,11.43
2023-05-21T04:54:28.612Z,11.44
2023-05-21T04:55:27.970Z,11.61
2023-05-21T04:56:28.000Z,11.65
2023-05-21T04:57:27.978Z,11.6
2023-05-21T04:58:28.046Z,11.6
2023-05-21T04:59:28.093Z,11.78
2023-05-21T05:00:27.989Z,11.86
2023-05-21T05:01:28.137Z,11.86
2023-05-21T05:02:28.124Z,11.79
2023-05-21T05:03:28.173Z,11.96
2023-05-21T05:04:28.120Z,11.99
2023-05-21T05:05:28.096Z,11.96
2023-05-21T05:06:28.142Z,12
2023-05-21T05:07:28.190Z,12.11
2023-05-21T05:08:28.164Z,12.23
2023-05-21T05:09:28.201Z,12.28
2023-05-21T05:10:28.198Z,12.32
2023-05-21T05:11:28.191Z,12.42
2023-05-21T05:12:28.243Z,12.6
2023-05-21T05:13:28.227Z,12.48
2023-05-21T05:14:28.233Z,12.51
2023-05-21T05:15:28.236Z,12.49
2023-05-21T05:16:28.269Z,12.58
2023-05-21T05:17:28.320Z,12.73
2023-05-21T05:18:29.248Z,12.68
2023-05-21T05:19:28.486Z,12.71
2023-05-21T05:20:28.419Z,12.68
2023-05-21T05:21:28.343Z,12.67
2023-05-21T05:22:28.403Z,12.69
2023-05-21T05:23:28.371Z,12.73
2023-05-21T05:24:28.371Z,12.85
2023-05-21T05:25:28.454Z,13.04
2023-05-21T05:26:28.469Z,12.93
2023-05-21T05:27:28.685Z,13.01
2023-05-21T05:28:28.487Z,12.94
2023-05-21T05:29:28.485Z,13.03
2023-05-21T05:30:28.475Z,13.13
2023-05-21T05:31:28.533Z,13.22
2023-05-21T05:32:28.573Z,13.25
2023-05-21T05:33:28.609Z,13.1
2023-05-21T05:34:28.538Z,13.06
2023-05-21T05:35:28.569Z,13.15
2023-05-21T05:36:28.549Z,13.19
2023-05-21T05:37:28.568Z,13.28
2023-05-21T05:38:28.579Z,13.39
2023-05-21T05:39:28.596Z,13.48
2023-05-21T05:40:28.643Z,13.54
2023-05-21T05:41:28.580Z,13.57
2023-05-21T05:42:28.648Z,13.56
2023-05-21T05:43:28.663Z,13.65
2023-05-21T05:44:28.658Z,13.65
2023-05-21T05:45:28.672Z,13.87
2023-05-21T05:46:29.291Z,14.04
2023-05-21T05:47:28.694Z,13.93
2023-05-21T05:48:28.745Z,13.92
2023-05-21T05:49:28.696Z,13.95
2023-05-21T05:50:28.675Z,13.95
2023-05-21T05:51:28.721Z,13.9
2023-05-21T05:52:28.741Z,13.84
2023-05-21T05:53:28.748Z,13.88
2023-05-21T05:54:28.879Z,14.04
2023-05-21T05:55:28.776Z,14.16
2023-05-21T05:56:28.823Z,14.22
2023-05-21T05:57:28.761Z,14.27
2023-05-21T05:58:29.934Z,14.37
2023-05-21T05:59:28.788Z,14.41
2023-05-21T06:00:28.879Z,14.59
2023-05-21T06:01:28.838Z,14.6
2023-05-21T06:02:28.904Z,14.63
2023-05-21T06:03:28.963Z,14.5
2023-05-21T06:04:28.891Z,14.6
2023-05-21T06:05:29.328Z,14.56
2023-05-21T06:06:28.883Z,14.67
2023-05-21T06:07:28.907Z,14.79
2023-05-21T06:08:28.885Z,14.95
2023-05-21T06:09:28.985Z,15.1
2023-05-21T06:10:28.937Z,15.18
2023-05-21T06:11:29.013Z,14.89
2023-05-21T06:12:28.945Z,14.91
2023-05-21T06:13:29.016Z,14.85
2023-05-21T06:14:28.986Z,14.83
2023-05-21T06:15:29.302Z,14.78
2023-05-21T06:16:29.226Z,14.88
2023-05-21T06:17:29.022Z,15.06
2023-05-21T06:18:29.249Z,14.9
2023-05-21T06:19:29.173Z,15.06
2023-05-21T06:20:29.266Z,15.06
2023-05-21T06:21:29.121Z,15.15
2023-05-21T06:22:29.118Z,15.06
2023-05-21T06:23:29.176Z,15
2023-05-21T06:24:29.658Z,15.01
2023-05-21T06:25:29.233Z,15.04
2023-05-21T06:26:29.241Z,15.06
2023-05-21T06:27:29.241Z,15.05
2023-05-21T06:28:29.225Z,15.25
2023-05-21T06:29:29.245Z,15.27
2023-05-21T06:30:29.250Z,15.39
2023-05-21T06:31:29.269Z,15.37
2023-05-21T06:32:29.296Z,15.6
2023-05-21T06:33:29.399Z,15.54
2023-05-21T06:34:29.306Z,15.57
2023-05-21T06:35:29.330Z,15.63
2023-05-21T06:36:29.420Z,15.55
2023-05-21T06:37:29.361Z,15.51
2023-05-21T06:38:29.371Z,15.6
2023-05-21T06:39:29.411Z,15.82
2023-05-21T06:40:29.405Z,15.59
2023-05-21T06:41:29.418Z,15.57
2023-05-21T06:42:29.378Z,15.86
2023-05-21T06:43:29.487Z,15.9
2023-05-21T06:44:29.420Z,15.83
2023-05-21T06:45:29.889Z,15.77
2023-05-21T06:46:30.049Z,15.67
2023-05-21T06:47:29.883Z,15.62
2023-05-21T06:48:29.881Z,15.71
2023-05-21T06:49:29.990Z,15.73
2023-05-21T06:50:29.945Z,15.51
2023-05-21T06:51:29.973Z,15.65
2023-05-21T06:52:29.975Z,16
2023-05-21T06:53:30.017Z,16.03
2023-05-21T06:54:29.981Z,15.93
2023-05-21T06:55:29.978Z,16
2023-05-21T06:56:30.057Z,16.01
2023-05-21T06:57:30.068Z,16.27
2023-05-21T06:58:30.113Z,16.26
2023-05-21T06:59:30.072Z,16.25
2023-05-21T07:00:30.084Z,16.15
2023-05-21T07:01:30.208Z,16.21
2023-05-21T07:02:30.247Z,16.4
2023-05-21T07:03:30.297Z,16.3
2023-05-21T07:04:30.154Z,16.35
2023-05-21T07:05:30.275Z,16.4
2023-05-21T07:06:30.187Z,16.45
2023-05-21T07:07:30.163Z,16.62
2023-05-21T07:08:30.231Z,16.53
2023-05-21T07:09:30.914Z,16.61
2023-05-21T07:10:30.278Z,16.67
2023-05-21T07:11:30.215Z,16.55
2023-05-21T07:12:30.251Z,16.65
2023-05-21T07:13:30.268Z,16.36
2023-05-21T07:14:30.270Z,16.43
2023-05-21T07:15:30.289Z,16.7
2023-05-21T07:16:30.327Z,16.63
2023-05-21T07:17:30.344Z,16.92
2023-05-21T07:18:30.995Z,16.84
2023-05-21T07:19:30.378Z,16.62
2023-05-21T07:20:30.566Z,16.51
2023-05-21T07:21:30.385Z,16.67
2023-05-21T07:22:30.421Z,16.32
2023-05-21T07:23:30.390Z,16.43
2023-05-21T07:24:30.388Z,16.85
2023-05-21T07:25:30.593Z,17.06
2023-05-21T07:26:30.480Z,17.32
2023-05-21T07:27:30.575Z,17.35
2023-05-21T07:28:30.546Z,17.26
2023-05-21T07:29:30.548Z,17.04
2023-05-21T07:30:30.489Z,17.13
2023-05-21T07:31:30.584Z,17.03
2023-05-21T07:32:30.925Z,16.94
2023-05-21T07:33:30.530Z,17.05
2023-05-21T07:34:30.486Z,17.15
2023-05-21T07:35:30.582Z,17.27
2023-05-21T07:36:30.580Z,17.28
2023-05-21T07:37:30.644Z,17.32
2023-05-21T07:38:30.600Z,17.28
2023-05-21T07:39:31.046Z,17.36
2023-05-21T07:40:30.565Z,17.49
2023-05-21T07:41:30.590Z,17.49
2023-05-21T07:42:31.009Z,17.28
2023-05-21T07:43:31.440Z,17.22
2023-05-21T07:44:30.636Z,17.4
2023-05-21T07:45:30.829Z,17.35
2023-05-21T07:46:30.715Z,17.28
2023-05-21T07:47:30.674Z,17.07
2023-05-21T07:48:30.679Z,17.09
2023-05-21T07:49:30.733Z,17.52
2023-05-21T07:50:30.942Z,17.7
2023-05-21T07:51:31.053Z,17.65
2023-05-21T07:52:30.782Z,17.59
2023-05-21T07:53:30.748Z,17.42
2023-05-21T07:54:30.748Z,17.57
2023-05-21T07:55:30.771Z,17.66
2023-05-21T07:56:30.786Z,17.42
2023-05-21T07:57:30.791Z,17.4
2023-05-21T07:58:30.863Z,17.56
2023-05-21T07:59:30.846Z,17.55
2023-05-21T08:00:41.952Z,17.39
2023-05-21T08:01:33.643Z,17.56
2023-05-21T08:02:33.749Z,17.71
2023-05-21T08:03:33.861Z,17.88
2023-05-21T08:04:33.752Z,17.89
2023-05-21T08:05:33.705Z,17.88
2023-05-21T08:06:33.710Z,18.07
2023-05-21T08:07:33.757Z,17.66
2023-05-21T08:08:33.769Z,17.53
2023-05-21T08:09:33.757Z,17.44
2023-05-21T08:10:33.812Z,17.54
2023-05-21T08:11:33.927Z,17.68
2023-05-21T08:12:33.836Z,18.04
2023-05-21T08:13:33.786Z,18.22
2023-05-21T08:14:33.832Z,18.14
2023-05-21T08:15:33.784Z,18.16
2023-05-21T08:16:34.633Z,17.89
2023-05-21T08:17:33.869Z,18.02
2023-05-21T08:18:33.986Z,18.01
2023-05-21T08:19:33.928Z,18.38
2023-05-21T08:20:34.423Z,18.64
2023-05-21T08:21:33.907Z,18.82
2023-05-21T08:22:33.931Z,19.02
2023-05-21T08:23:33.930Z,18.64
2023-05-21T08:24:34.354Z,18.31
2023-05-21T08:25:33.965Z,18.49
2023-05-21T08:26:33.974Z,18.16
2023-05-21T08:27:33.990Z,17.9
2023-05-21T08:28:34.011Z,17.73
2023-05-21T08:29:34.108Z,17.46
2023-05-21T08:30:34.027Z,17.33
2023-05-21T08:31:34.078Z,17.25
2023-05-21T08:32:34.074Z,17.66
2023-05-21T08:33:36.996Z,17.94
2023-05-21T08:34:34.140Z,17.95
2023-05-21T08:35:34.546Z,17.93
2023-05-21T08:36:34.079Z,18.46
2023-05-21T08:37:34.187Z,18.69
2023-05-21T08:38:34.602Z,18.73
2023-05-21T08:39:34.164Z,18.77
2023-05-21T08:40:34.582Z,18.73
2023-05-21T08:41:35.213Z,18.76
2023-05-21T08:42:43.627Z,18.58
2023-05-21T08:43:37.054Z,18.48
2023-05-21T08:44:37.782Z,18.39
2023-05-21T08:45:37.072Z,18.17
2023-05-21T08:46:36.042Z,17.88
2023-05-21T08:47:36.329Z,18
2023-05-21T08:48:36.883Z,18.31
2023-05-21T08:49:35.975Z,18.4
2023-05-21T08:50:35.562Z,18.26
2023-05-21T08:51:35.676Z,18.12
2023-05-21T08:52:35.870Z,18.04
2023-05-21T08:53:35.505Z,18.12
2023-05-21T08:54:35.856Z,18.08
2023-05-21T08:55:36.324Z,18.04
2023-05-21T08:56:35.524Z,18.26
2023-05-21T08:57:36.119Z,18.49
2023-05-21T08:58:36.414Z,18.32
2023-05-21T08:59:35.997Z,18.55
2023-05-21T09:00:35.582Z,18.65
2023-05-21T09:01:36.074Z,18.36
2023-05-21T09:02:37.641Z,18.62
2023-05-21T09:03:36.126Z,18.68
2023-05-21T09:04:35.916Z,18.75
2023-05-21T09:05:35.794Z,18.58
2023-05-21T09:06:36.420Z,18.52
2023-05-21T09:07:41.950Z,18.27
2023-05-21T09:08:43.254Z,18.13
2023-05-21T09:09:45.808Z,17.86
2023-05-21T09:10:48.415Z,17.66
2023-05-21T09:11:46.186Z,17.63
2023-05-21T09:12:45.522Z,17.58
2023-05-21T09:13:46.182Z,17.38
2023-05-21T09:14:47.293Z,17.45
2023-05-21T09:15:45.450Z,17.46
2023-05-21T09:16:46.202Z,17.47
2023-05-21T09:17:48.499Z,17.59
2023-05-21T09:18:45.347Z,17.46
2023-05-21T09:20:50.301Z,17.61
2023-05-21T09:21:52.688Z,17.93
2023-05-21T09:22:50.534Z,18.13
2023-05-21T09:23:56.701Z,18.12
2023-05-21T09:24:53.822Z,17.97
2023-05-21T09:25:53.376Z,17.74
2023-05-21T09:26:53.409Z,17.65
2023-05-21T09:27:54.856Z,17.51
2023-05-21T09:28:56.769Z,17.4
2023-05-21T09:29:53.505Z,17.41
2023-05-21T09:30:53.539Z,17.47
2023-05-21T09:31:53.682Z,17.43
2023-05-21T09:32:57.647Z,17.66
2023-05-21T09:33:54.418Z,18.07
2023-05-21T09:34:54.488Z,18.3
2023-05-21T09:35:54.594Z,18.68
2023-05-21T09:36:56.645Z,18.51
2023-05-21T09:37:55.019Z,18.49
2023-05-21T09:38:54.819Z,18.65
2023-05-21T09:39:54.866Z,18.67
2023-05-21T09:40:57.287Z,18.59
2023-05-21T09:41:56.589Z,18.4
2023-05-21T09:42:55.083Z,18.55
2023-05-21T09:43:58.561Z,18.93
2023-05-21T09:44:55.292Z,18.87
2023-05-21T09:45:56.861Z,18.57
2023-05-21T09:46:58.304Z,18.08
2023-05-21T09:47:55.927Z,18.13
2023-05-21T09:48:55.290Z,18.09
2023-05-21T09:49:58.096Z,18.12
2023-05-21T09:51:06.652Z,18.2
2023-05-21T09:51:58.604Z,17.98
2023-05-21T09:52:58.378Z,17.87
2023-05-21T09:53:58.617Z,17.86
2023-05-21T09:54:58.419Z,17.69
2023-05-21T09:55:59.443Z,17.63
2023-05-21T09:56:59.869Z,17.73
2023-05-21T09:57:58.623Z,18.23
2023-05-21T09:58:59.420Z,18.26
2023-05-21T09:59:58.763Z,18.42
2023-05-21T10:00:58.971Z,18.78
2023-05-21T10:01:58.507Z,18.87
2023-05-21T10:03:01.471Z,19.29
2023-05-21T10:03:59.421Z,18.94
2023-05-21T10:04:58.913Z,18.93
2023-05-21T10:05:59.610Z,18.97
2023-05-21T10:06:59.650Z,19.12
2023-05-21T10:08:02.255Z,19.15
2023-05-21T10:09:01.161Z,19.01
2023-05-21T10:10:00.401Z,18.68
2023-05-21T10:10:59.357Z,18.3
2023-05-21T10:11:59.442Z,18.25
2023-05-21T10:13:00.673Z,18.34
2023-05-21T10:14:06.240Z,18.26
2023-05-21T10:15:04.023Z,19.12
2023-05-21T10:16:03.879Z,18.86
2023-05-21T10:17:04.710Z,19.12
2023-05-21T10:18:03.582Z,19.55
2023-05-21T10:19:03.446Z,19.57
2023-05-21T10:20:04.657Z,19.49
2023-05-21T10:21:04.342Z,18.73
2023-05-21T10:22:03.937Z,18.49
2023-05-21T10:23:03.538Z,18.28
2023-05-21T10:24:05.058Z,18.42
2023-05-21T10:25:03.846Z,18.83
2023-05-21T10:26:03.639Z,18.9
2023-05-21T10:27:03.759Z,19.15
2023-05-21T10:28:03.519Z,18.91
2023-05-21T10:29:03.349Z,19.21
2023-05-21T10:30:12.009Z,19.16
2023-05-21T10:31:04.144Z,18.77
2023-05-21T10:32:05.487Z,18.87
2023-05-21T10:33:04.292Z,18.95
2023-05-21T10:34:03.932Z,19.21
2023-05-21T10:35:04.322Z,19.14
2023-05-21T10:36:05.012Z,19.02
2023-05-21T10:37:04.538Z,19.22
2023-05-21T10:38:04.253Z,19.15
2023-05-21T10:39:04.075Z,18.91
2023-05-21T10:40:04.364Z,19.14
2023-05-21T10:41:05.586Z,19.45
2023-05-21T10:42:13.809Z,19.69
2023-05-21T10:43:13.361Z,20.33
2023-05-21T10:52:32.574Z,19.77
2023-05-21T11:00:42.778Z,18.61
2023-05-21T11:01:42.242Z,18.77
2023-05-21T11:02:42.360Z,19.15
2023-05-21T11:03:42.349Z,19.45
2023-05-21T11:04:44.558Z,19.45
2023-05-21T11:06:46.816Z,19.53
2023-05-21T11:08:47.577Z,19.93
2023-05-21T11:09:44.372Z,19.85
2023-05-21T11:10:44.381Z,19.6
2023-05-21T11:13:53.017Z,19.3
2023-05-21T11:14:56.816Z,19.11
2023-05-21T11:16:02.458Z,18.74
2023-05-21T11:16:54.703Z,18.67
2023-05-21T11:17:56.683Z,18.6
2023-05-21T11:18:57.248Z,18.45
2023-05-21T11:19:54.591Z,18.47
2023-05-21T11:20:54.265Z,18.82
2023-05-21T11:21:55.124Z,19.01
2023-05-21T11:22:54.309Z,19.43
2023-05-21T11:23:55.536Z,19.46
2023-05-21T11:24:55.378Z,19.3
2023-05-21T11:26:03.049Z,19.05
2023-05-21T11:27:03.400Z,18.79
2023-05-21T11:28:04.992Z,18.92
2023-05-21T11:29:08.681Z,18.78
2023-05-21T11:30:03.176Z,19.02
2023-05-21T11:32:06.487Z,19.91
2023-05-21T11:34:12.712Z,19.13
2023-05-21T11:35:13.795Z,18.86
2023-05-21T11:36:12.006Z,18.71
2023-05-21T11:38:12.419Z,18.36
2023-05-21T11:39:18.774Z,18.21
2023-05-21T11:40:24.869Z,18.22
2023-05-21T11:41:19.903Z,18.11
2023-05-21T11:43:19.097Z,18.83
2023-05-21T11:44:19.191Z,19.24
2023-05-21T11:45:19.743Z,19.48
2023-05-21T11:46:19.331Z,19.9
2023-05-21T11:47:19.341Z,20.35
2023-05-21T11:48:20.909Z,20.55
2023-05-21T11:49:21.719Z,20.68
2023-05-21T11:50:19.541Z,20.46
2023-05-21T11:51:19.194Z,20.53
2023-05-21T11:52:19.042Z,20.32
2023-05-21T11:53:19.010Z,19.7
2023-05-21T11:54:19.039Z,19.37
2023-05-21T11:55:22.330Z,18.98
2023-05-21T11:56:19.419Z,18.77
2023-05-21T11:57:19.889Z,18.52
2023-05-21T11:58:19.313Z,18.44
2023-05-21T11:59:19.121Z,18.38
2023-05-21T12:00:19.082Z,18.25
2023-05-21T12:01:22.934Z,18.48
2023-05-21T12:02:20.652Z,19.08
2023-05-21T12:03:22.027Z,18.96
2023-05-21T12:04:19.896Z,19.32
2023-05-21T12:05:19.868Z,19.93
2023-05-21T12:06:25.822Z,20.08
2023-05-21T12:07:23.220Z,20.18
2023-05-21T12:08:24.348Z,20.12
2023-05-21T12:09:25.020Z,20.32
2023-05-21T12:10:24.531Z,20.45
2023-05-21T12:11:24.811Z,20.48
2023-05-21T12:12:25.781Z,20.22
2023-05-21T12:13:24.385Z,19.63
2023-05-21T12:14:24.222Z,19.43
2023-05-21T12:15:24.889Z,19.15
2023-05-21T12:16:24.565Z,18.98
2023-05-21T12:17:25.620Z,18.9
2023-05-21T12:18:24.977Z,18.91
2023-05-21T12:19:25.086Z,18.94
2023-05-21T12:20:27.440Z,19.29
2023-05-21T12:21:27.815Z,18.95
2023-05-21T12:22:26.034Z,19.17
2023-05-21T12:23:25.537Z,19.05
2023-05-21T12:24:25.771Z,18.83
2023-05-21T12:25:27.807Z,18.61
2023-05-21T12:26:26.513Z,18.51
2023-05-21T12:27:24.856Z,18.44
2023-05-21T12:28:25.750Z,18.46
2023-05-21T12:29:26.633Z,19.08
2023-05-21T12:30:25.999Z,19.32
2023-05-21T12:31:25.251Z,19.33
2023-05-21T12:32:27.401Z,19.92
2023-05-21T12:33:33.485Z,20.26
2023-05-21T12:34:43.307Z,20.35
2023-05-21T12:35:37.026Z,20.35
2023-05-21T12:36:35.322Z,20.81
2023-05-21T12:37:36.176Z,20.61
2023-05-21T12:38:37.034Z,20.77
2023-05-21T12:39:38.412Z,20.88
2023-05-21T12:40:38.645Z,21.17
2023-05-21T12:41:36.288Z,21.14
2023-05-21T12:42:36.673Z,21.29
2023-05-21T12:43:37.289Z,20.09
2023-05-21T12:44:47.475Z,19.6
2023-05-21T12:45:39.572Z,19.81
2023-05-21T12:46:39.265Z,19.94
2023-05-21T12:47:39.235Z,20.57
2023-05-21T12:48:39.373Z,20.36
2023-05-21T12:49:43.436Z,20.12
2023-05-21T12:50:40.188Z,20.43
2023-05-21T12:51:40.158Z,21.16
2023-05-21T12:52:40.793Z,21.01
2023-05-21T12:53:43.246Z,20.67
2023-05-21T12:54:45.228Z,20.89
2023-05-21T12:55:41.948Z,21.44
2023-05-21T12:56:45.089Z,21.54
2023-05-21T12:57:42.000Z,21.22
2023-05-21T12:58:42.354Z,20.64
2023-05-21T13:00:44.150Z,21.42
2023-05-21T13:01:47.329Z,21.3
2023-05-21T13:02:45.047Z,20.88
2023-05-21T13:03:44.868Z,20.69
2023-05-21T13:04:44.239Z,20.09
2023-05-21T13:05:44.219Z,19.62
2023-05-21T13:06:44.293Z,19.23
2023-05-21T13:07:44.276Z,19.17
2023-05-21T13:08:44.294Z,19.15
2023-05-21T13:09:44.287Z,19
2023-05-21T13:10:44.314Z,18.83
2023-05-21T13:11:44.325Z,18.84
2023-05-21T13:12:44.874Z,18.74
2023-05-21T13:13:44.347Z,18.83
2023-05-21T13:14:44.395Z,19.32
2023-05-21T13:15:44.510Z,19.73
2023-05-21T13:16:46.686Z,19.84
2023-05-21T13:17:44.452Z,20.06
2023-05-21T13:18:44.543Z,20.52
2023-05-21T13:20:45.657Z,20.79
2023-05-21T13:21:45.589Z,20.86
2023-05-21T13:22:47.071Z,20.95
2023-05-21T13:23:45.685Z,21.56
2023-05-21T13:24:45.674Z,21.96
2023-05-21T13:25:45.705Z,21.69
2023-05-21T13:26:45.736Z,22.12
2023-05-21T13:27:46.464Z,21.87
2023-05-21T13:28:45.744Z,22.06
2023-05-21T13:29:45.785Z,21.9
2023-05-21T13:30:45.768Z,22.06
2023-05-21T13:31:45.761Z,22.33
2023-05-21T13:32:45.931Z,22.06